Time;durP1;ratioP1;P1;durP2;ratioP2;P2;SDS_P1;SDS_P2;PMS_P1;PMS_P2;Temp;Humidity;BMP_temperature;BMP_pressure;BME280_temperature;BME280_humidity;BME280_pressure;Samples;Min_cycle;Max_cycle;Signal;HPM_P1;HPM_P2
2023/11/19 00:02:18;;;;;;;1.95;1.75;;;7.10;99.90;;;;;;4915003;29;20239;-75
2023/11/19 00:04:45;;;;;;;1.73;1.55;;;7.10;99.90;;;;;;4915567;29;20220;-75
2023/11/19 00:07:13;;;;;;;1.95;1.70;;;7.20;99.90;;;;;;4915283;29;20965;-74
2023/11/19 00:09:40;;;;;;;2.40;2.15;;;7.30;99.90;;;;;;4915493;29;20213;-75
2023/11/19 00:12:07;;;;;;;2.20;1.88;;;7.30;99.90;;;;;;4915151;29;20229;-76
2023/11/19 00:14:35;;;;;;;1.88;1.55;;;7.40;99.90;;;;;;4908651;29;20209;-75
2023/11/19 04:30:58;;;;;;;0.90;0.60;;;9.80;99.90;;;;;;5955803;23;21171;-93
2023/11/19 04:33:27;;;;;;;0.80;0.70;;;9.80;99.90;;;;;;4952001;29;20240;-93
2023/11/19 04:35:54;;;;;;;0.80;0.70;;;9.90;99.90;;;;;;4949975;29;20245;-92
2023/11/19 04:38:20;;;;;;;0.90;0.77;;;9.90;99.90;;;;;;4940378;29;20233;-93
2023/11/19 04:40:48;;;;;;;0.77;0.70;;;9.90;99.90;;;;;;4947341;29;20301;-92
2023/11/19 04:43:15;;;;;;;0.70;0.60;;;9.90;99.90;;;;;;4940529;29;20233;-93
2023/11/19 04:45:42;;;;;;;0.80;0.70;;;9.90;99.90;;;;;;4938276;29;20659;-92
2023/11/19 04:48:09;;;;;;;0.70;0.60;;;10.00;99.90;;;;;;4933856;29;20236;-93
2023/11/19 04:50:38;;;;;;;1.10;0.80;;;10.00;99.90;;;;;;4925643;29;20235;-94
2023/11/19 04:53:05;;;;;;;0.70;0.63;;;10.00;99.90;;;;;;4921071;29;20270;-94
2023/11/19 04:55:32;;;;;;;0.80;0.70;;;10.00;99.90;;;;;;4918789;29;20211;-93
2023/11/19 04:57:59;;;;;;;0.80;0.80;;;10.00;99.90;;;;;;4920036;29;20231;-93
2023/11/19 05:00:26;;;;;;;0.70;0.60;;;10.00;99.90;;;;;;4928138;29;20214;-92
2023/11/19 05:02:53;;;;;;;0.75;0.70;;;10.00;99.90;;;;;;4933337;29;20210;-94
2023/11/19 05:05:20;;;;;;;0.98;0.70;;;10.00;99.90;;;;;;4930302;29;20216;-93
2023/11/19 05:07:48;;;;;;;0.70;0.60;;;10.00;99.90;;;;;;4911438;29;20233;-94
2023/11/19 05:10:15;;;;;;;0.90;0.60;;;10.00;99.90;;;;;;4928836;29;20216;-93
2023/11/19 05:12:42;;;;;;;0.93;0.80;;;10.00;99.90;;;;;;4920624;29;20234;-93
2023/11/19 05:15:11;;;;;;;0.80;0.70;;;10.00;99.90;;;;;;4919138;29;20218;-92
2023/11/19 05:17:37;;;;;;;1.00;0.90;;;10.00;99.90;;;;;;4920976;29;20210;-93
2023/11/19 05:20:05;;;;;;;1.00;0.80;;;10.00;99.90;;;;;;4927270;29;20203;-92
2023/11/19 05:22:32;;;;;;;0.70;0.70;;;10.00;99.90;;;;;;4925577;29;20873;-93
2023/11/19 05:25:05;;;;;;;0.80;0.70;;;10.00;99.90;;;;;;4927452;29;20210;-93
2023/11/19 05:27:34;;;;;;;0.70;0.60;;;10.00;99.90;;;;;;4927563;29;20240;-93
2023/11/19 05:30:15;;;;;;;0.80;0.70;;;10.00;99.90;;;;;;4927846;29;20230;-93
2023/11/19 05:32:43;;;;;;;0.70;0.60;;;10.00;99.90;;;;;;4924622;29;20321;-93
2023/11/19 05:35:10;;;;;;;0.70;0.60;;;10.10;99.90;;;;;;4918979;29;20234;-93
2023/11/19 05:37:36;;;;;;;0.70;0.70;;;10.10;99.90;;;;;;4926527;29;20213;-92
2023/11/19 05:40:14;;;;;;;0.70;0.60;;;10.10;99.90;;;;;;4926283;29;20220;-93
2023/11/19 05:42:41;;;;;;;0.70;0.60;;;10.10;99.90;;;;;;4920951;29;20237;-93
2023/11/19 05:45:09;;;;;;;0.80;0.73;;;10.10;99.90;;;;;;4920951;29;20265;-92
2023/11/19 05:47:36;;;;;;;0.80;0.70;;;10.10;99.90;;;;;;4914293;29;20226;-93
2023/11/19 05:50:03;;;;;;;0.80;0.70;;;10.10;99.90;;;;;;4912866;29;20208;-93
2023/11/19 05:52:33;;;;;;;0.70;0.60;;;10.10;99.90;;;;;;4916571;29;20239;-92
2023/11/19 05:55:02;;;;;;;0.70;0.60;;;10.10;99.90;;;;;;4919523;29;20212;-92
2023/11/19 05:57:31;;;;;;;1.98;0.77;;;10.10;99.90;;;;;;4917133;29;20236;-94
2023/11/19 05:59:59;;;;;;;0.80;0.70;;;10.10;99.90;;;;;;4916425;29;20238;-93
2023/11/19 06:02:27;;;;;;;1.08;0.75;;;10.10;99.90;;;;;;4926324;29;20238;-92
2023/11/19 06:04:53;;;;;;;0.85;0.70;;;10.10;99.90;;;;;;4927223;29;20274;-93
2023/11/19 06:07:20;;;;;;;0.80;0.70;;;10.10;99.90;;;;;;4909297;29;20227;-93
2023/11/19 06:09:47;;;;;;;0.70;0.70;;;10.10;99.90;;;;;;4907026;29;20270;-93
2023/11/19 06:12:14;;;;;;;2.25;1.05;;;10.20;99.90;;;;;;4908561;29;20252;-92
2023/11/19 06:14:42;;;;;;;0.90;0.80;;;10.20;99.90;;;;;;4924968;29;20209;-93
2023/11/19 06:17:11;;;;;;;0.70;0.63;;;10.20;99.90;;;;;;4925819;29;20229;-92
2023/11/19 06:19:37;;;;;;;0.70;0.70;;;10.20;99.90;;;;;;4924334;29;20207;-93
2023/11/19 06:22:05;;;;;;;1.00;0.90;;;10.20;99.90;;;;;;4922892;29;20233;-93
2023/11/19 06:24:32;;;;;;;0.70;0.70;;;10.20;99.90;;;;;;4916035;29;20293;-93
2023/11/19 06:26:59;;;;;;;0.80;0.70;;;10.20;99.90;;;;;;4915771;29;20222;-92
2023/11/19 06:29:25;;;;;;;0.80;0.70;;;10.20;99.90;;;;;;4925179;29;20215;-92
2023/11/19 06:31:54;;;;;;;0.70;0.60;;;10.20;99.90;;;;;;4927598;29;20238;-93
2023/11/19 06:34:20;;;;;;;0.80;0.70;;;10.20;99.90;;;;;;4912697;29;20218;-93
2023/11/19 06:36:48;;;;;;;0.77;0.70;;;10.20;99.90;;;;;;4919162;29;20213;-93
2023/11/19 06:39:15;;;;;;;0.80;0.70;;;10.20;99.90;;;;;;4925605;29;20215;-96
2023/11/19 06:41:46;;;;;;;0.80;0.68;;;10.20;99.90;;;;;;4925266;29;20254;-93
2023/11/19 06:44:13;;;;;;;0.80;0.70;;;10.20;99.90;;;;;;4915768;29;20576;-94
2023/11/19 06:46:39;;;;;;;0.75;0.68;;;10.30;99.90;;;;;;4924686;29;20210;-93
2023/11/19 06:49:08;;;;;;;1.00;0.90;;;10.30;99.90;;;;;;4924455;29;20223;-91
2023/11/19 06:51:35;;;;;;;0.80;0.60;;;10.30;99.90;;;;;;4924350;29;20234;-93
2023/11/19 06:54:02;;;;;;;0.80;0.70;;;10.20;99.90;;;;;;4925139;29;20298;-93
2023/11/19 06:56:29;;;;;;;0.80;0.70;;;10.30;99.90;;;;;;4925312;29;20227;-93
2023/11/19 06:58:55;;;;;;;0.95;0.82;;;10.30;99.90;;;;;;4926851;29;20209;-92
2023/11/19 07:01:25;;;;;;;0.70;0.70;;;10.30;99.90;;;;;;4926584;29;20240;-93
2023/11/19 07:03:57;;;;;;;0.85;0.70;;;10.30;99.90;;;;;;4926542;29;20234;-93
2023/11/19 07:06:26;;;;;;;0.70;0.70;;;10.30;99.90;;;;;;4925483;29;20301;-92
2023/11/19 07:08:53;;;;;;;0.98;0.88;;;10.30;99.90;;;;;;4925409;29;20234;-93
2023/11/19 07:11:19;;;;;;;1.00;0.80;;;10.30;99.90;;;;;;4930535;29;20222;-91
2023/11/19 07:13:46;;;;;;;0.80;0.70;;;10.40;99.90;;;;;;4931016;29;20219;-92
2023/11/19 07:16:15;;;;;;;0.80;0.70;;;10.40;99.90;;;;;;4931063;29;20261;-91
2023/11/19 07:21:22;;;;;;;0.80;0.73;;;10.40;99.90;;;;;;4932786;29;20320;-91
2023/11/19 07:23:51;;;;;;;0.70;0.70;;;10.40;99.90;;;;;;4938735;28;20260;-92
2023/11/19 07:26:18;;;;;;;0.70;0.70;;;10.40;99.90;;;;;;4933283;29;20206;-91
2023/11/19 07:28:45;;;;;;;1.00;0.90;;;10.50;99.90;;;;;;4931063;29;20238;-93
2023/11/19 07:31:13;;;;;;;0.93;0.77;;;10.50;99.90;;;;;;4926522;28;20258;-94
2023/11/19 07:33:42;;;;;;;0.80;0.80;;;10.40;99.90;;;;;;4928876;29;20210;-92
2023/11/19 07:36:09;;;;;;;0.70;0.60;;;10.50;99.90;;;;;;4923595;29;20210;-92
2023/11/19 07:38:36;;;;;;;0.82;0.70;;;10.50;99.90;;;;;;4924195;29;20210;-92
2023/11/19 07:41:06;;;;;;;0.90;0.70;;;10.50;99.90;;;;;;4924374;29;20245;-91
2023/11/19 07:43:33;;;;;;;0.70;0.60;;;10.50;99.90;;;;;;4930345;29;20209;-91
2023/11/19 07:46:00;;;;;;;1.02;0.75;;;10.50;99.90;;;;;;4939984;28;20201;-94
2023/11/19 07:48:27;;;;;;;0.90;0.80;;;10.50;99.90;;;;;;4940454;28;20482;-95
2023/11/19 07:50:54;;;;;;;2.53;0.90;;;10.60;99.90;;;;;;4940961;28;20471;-93
2023/11/19 07:53:22;;;;;;;1.00;0.80;;;10.60;99.90;;;;;;4940540;28;20216;-93
2023/11/19 07:55:49;;;;;;;1.17;0.80;;;10.60;99.90;;;;;;4943704;28;20208;-94
2023/11/19 07:58:23;;;;;;;0.90;0.70;;;10.60;99.90;;;;;;4941078;28;20305;-91
2023/11/19 08:00:53;;;;;;;1.08;0.75;;;10.60;99.90;;;;;;4933212;29;20227;-91
2023/11/19 08:03:24;;;;;;;0.80;0.70;;;10.60;99.90;;;;;;4931391;29;20204;-91
2023/11/19 08:06:01;;;;;;;0.80;0.70;;;10.60;99.90;;;;;;4928572;29;20306;-90
2023/11/19 08:08:33;;;;;;;0.80;0.70;;;10.60;99.90;;;;;;4929561;29;20221;-91
2023/11/19 08:11:05;;;;;;;0.80;0.70;;;10.70;99.90;;;;;;4929255;29;20237;-91
2023/11/19 08:13:34;;;;;;;0.90;0.70;;;10.70;99.90;;;;;;4924553;29;20211;-91
2023/11/19 08:16:01;;;;;;;0.80;0.80;;;10.70;99.90;;;;;;4910093;29;20203;-91
2023/11/19 08:18:29;;;;;;;0.90;0.70;;;10.70;99.90;;;;;;4920931;29;20211;-91
2023/11/19 08:20:59;;;;;;;1.13;0.80;;;10.80;99.90;;;;;;4922714;29;20802;-91
2023/11/19 08:23:30;;;;;;;1.02;0.82;;;10.90;99.90;;;;;;4925231;29;20270;-90
2023/11/19 08:26:04;;;;;;;1.00;0.80;;;10.90;99.90;;;;;;4909083;29;20228;-90
2023/11/19 08:28:36;;;;;;;1.08;0.82;;;11.00;99.90;;;;;;4921699;29;20218;-92
2023/11/19 08:31:06;;;;;;;1.98;1.10;;;11.10;99.90;;;;;;4928566;29;20230;-91
2023/11/19 08:33:34;;;;;;;0.90;0.82;;;11.50;99.90;;;;;;4935065;29;20225;-91
2023/11/19 08:36:01;;;;;;;1.27;0.82;;;12.40;99.90;;;;;;4927572;29;20213;-91
2023/11/19 08:38:27;;;;;;;0.90;0.70;;;13.20;99.90;;;;;;4927958;29;20217;-92
2023/11/19 08:40:59;;;;;;;1.27;0.97;;;14.50;99.90;;;;;;4929189;29;20249;-91
2023/11/19 08:43:26;;;;;;;2.30;0.80;;;15.60;99.90;;;;;;4932271;29;20481;-90
2023/11/19 08:45:54;;;;;;;0.93;0.80;;;16.00;99.90;;;;;;4932197;29;20466;-92
2023/11/19 08:48:22;;;;;;;1.73;1.00;;;15.90;99.90;;;;;;4931512;29;20490;-91
2023/11/19 08:50:49;;;;;;;1.10;1.00;;;15.40;99.90;;;;;;4931270;29;20491;-91
2023/11/19 08:53:18;;;;;;;0.80;0.70;;;14.80;99.90;;;;;;4913524;29;20471;-91
2023/11/19 08:55:46;;;;;;;0.90;0.80;;;14.10;99.90;;;;;;4924289;29;20462;-91
2023/11/19 08:58:16;;;;;;;0.90;0.70;;;13.80;99.90;;;;;;4932376;29;20494;-91
2023/11/19 09:00:47;;;;;;;1.00;0.80;;;14.90;99.90;;;;;;4932358;29;20472;-92
2023/11/19 09:03:15;;;;;;;0.90;0.80;;;15.80;99.90;;;;;;4931693;29;20462;-91
2023/11/19 09:05:47;;;;;;;0.90;0.70;;;16.20;99.90;;;;;;4929973;29;20466;-91
2023/11/19 09:08:14;;;;;;;1.00;0.80;;;16.70;99.90;;;;;;4931133;29;20483;-91
2023/11/19 09:10:46;;;;;;;0.90;0.70;;;16.90;99.90;;;;;;4931314;29;20486;-91
2023/11/19 09:13:14;;;;;;;1.33;0.80;;;16.60;99.90;;;;;;4929199;29;20456;-90
2023/11/19 09:15:42;;;;;;;0.90;0.70;;;15.70;99.90;;;;;;4929565;29;20522;-91
2023/11/19 09:18:12;;;;;;;0.80;0.70;;;15.10;99.90;;;;;;4930927;29;20498;-91
2023/11/19 09:33:21;;;;;;;0.80;0.70;;;15.00;99.90;;;;;;4943806;29;20827;-70
2023/11/19 09:35:50;;;;;;;0.97;0.80;;;14.80;99.90;;;;;;4953721;28;20465;-70
2023/11/19 09:38:17;;;;;;;0.90;0.77;;;14.60;99.90;;;;;;4945000;28;20473;-72
2023/11/19 09:40:44;;;;;;;0.80;0.70;;;14.70;99.90;;;;;;4950088;28;20524;-71
2023/11/19 09:43:12;;;;;;;2.23;1.00;;;15.80;99.90;;;;;;4933571;28;20826;-72
2023/11/19 09:45:49;;;;;;;0.80;0.70;;;16.40;99.90;;;;;;4945029;28;20470;-72
2023/11/19 09:48:17;;;;;;;1.13;0.80;;;16.30;99.90;;;;;;4935938;28;20957;-70
2023/11/19 09:50:45;;;;;;;0.80;0.80;;;16.10;99.90;;;;;;4946103;28;20494;-70
2023/11/19 09:53:13;;;;;;;4.50;1.13;;;17.20;99.90;;;;;;4934705;28;20467;-72
2023/11/19 09:55:42;;;;;;;1.13;0.90;;;17.90;99.90;;;;;;4945695;28;20493;-72
2023/11/19 09:58:10;;;;;;;1.00;0.80;;;17.90;99.90;;;;;;4935766;28;20470;-72
2023/11/19 10:00:40;;;;;;;0.93;0.83;;;18.60;99.90;;;;;;4925109;29;20496;-70
2023/11/19 10:03:10;;;;;;;1.10;1.00;;;19.40;99.90;;;;;;4926345;29;20464;-69
2023/11/19 10:05:38;;;;;;;0.97;0.80;;;20.30;99.90;;;;;;4924842;29;20461;-69
2023/11/19 10:08:05;;;;;;;1.00;0.90;;;20.60;99.90;;;;;;4925936;29;20495;-72
2023/11/19 10:10:34;;;;;;;1.00;0.80;;;20.10;99.90;;;;;;4945861;29;20474;-71
2023/11/19 10:13:01;;;;;;;0.90;0.80;;;18.70;99.90;;;;;;4945515;28;20542;-73
2023/11/19 10:15:29;;;;;;;0.90;0.70;;;17.60;99.90;;;;;;4944144;29;20470;-73
2023/11/19 10:17:57;;;;;;;1.10;0.83;;;17.60;99.90;;;;;;4940484;28;20535;-71
2023/11/19 10:20:24;;;;;;;0.80;0.70;;;19.80;99.90;;;;;;4929421;29;20500;-71
2023/11/19 10:22:54;;;;;;;0.80;0.70;;;22.30;99.90;;;;;;4927248;29;20557;-72
2023/11/19 10:25:25;;;;;;;1.30;1.00;;;23.80;99.90;;;;;;4928812;29;20498;-73
2023/11/19 10:27:54;;;;;;;1.20;0.83;;;24.60;99.90;;;;;;4931362;29;20473;-73
2023/11/19 10:30:22;;;;;;;1.77;0.90;;;24.30;99.90;;;;;;4929008;29;20505;-72
2023/11/19 10:33:05;;;;;;;0.90;0.80;;;23.40;99.90;;;;;;4931269;29;20958;-71
2023/11/19 10:35:32;;;;;;;1.20;0.80;;;22.00;99.90;;;;;;4943650;29;20492;-71
2023/11/19 10:38:01;;;;;;;1.07;0.80;;;20.90;99.90;;;;;;4929536;29;20879;-69
2023/11/19 10:40:39;;;;;;;0.90;0.73;;;21.10;99.90;;;;;;4929331;29;20954;-71
2023/11/19 10:43:08;;;;;;;1.00;0.80;;;23.10;99.90;;;;;;4937785;29;20468;-71
2023/11/19 10:45:35;;;;;;;1.00;0.80;;;24.30;99.90;;;;;;4919961;29;20878;-71
2023/11/19 10:48:04;;;;;;;2.07;1.20;;;25.90;99.90;;;;;;4945386;29;20561;-71
2023/11/19 10:50:31;;;;;;;0.80;0.70;;;26.30;99.90;;;;;;4943095;29;20460;-71
2023/11/19 10:52:59;;;;;;;1.57;0.70;;;25.30;99.90;;;;;;4940414;29;20472;-71
2023/11/19 10:55:29;;;;;;;1.27;0.87;;;23.70;99.90;;;;;;4928866;29;20901;-71
2023/11/19 10:58:00;;;;;;;0.80;0.60;;;21.80;99.90;;;;;;4940286;29;20523;-71
2023/11/19 11:00:31;;;;;;;0.80;0.70;;;20.40;99.90;;;;;;4936333;29;20473;-71
2023/11/19 11:03:03;;;;;;;0.90;0.80;;;19.90;99.90;;;;;;4940706;29;20551;-71
2023/11/19 11:05:34;;;;;;;1.10;0.87;;;21.40;99.90;;;;;;4935112;29;20858;-73
2023/11/19 11:08:03;;;;;;;0.90;0.80;;;22.50;99.90;;;;;;4941831;29;20470;-73
2023/11/19 11:10:36;;;;;;;0.90;0.60;;;22.30;99.90;;;;;;4930424;29;20472;-72
2023/11/19 11:13:04;;;;;;;0.90;0.70;;;21.00;99.90;;;;;;4928163;29;20475;-73
2023/11/19 11:15:32;;;;;;;1.03;0.80;;;19.80;99.90;;;;;;4940700;29;20988;-72
2023/11/19 11:18:02;;;;;;;1.07;0.80;;;18.80;99.90;;;;;;4943327;29;20465;-71
2023/11/19 11:20:31;;;;;;;0.90;0.70;;;18.20;99.90;;;;;;4931096;29;20466;-71
2023/11/19 11:23:24;;;;;;;1.10;0.90;;;17.90;99.90;;;;;;4927759;29;20479;-71
2023/11/19 11:26:01;;;;;;;1.57;0.80;;;17.80;99.90;;;;;;4923639;29;20533;-70
2023/11/19 11:28:32;;;;;;;1.30;0.80;;;17.40;99.90;;;;;;4930811;29;20491;-71
2023/11/19 11:31:12;;;;;;;1.37;0.70;;;17.10;99.90;;;;;;4931823;29;21033;-71
2023/11/19 11:34:00;;;;;;;3.00;1.03;;;16.70;99.90;;;;;;4935630;29;20464;-70
2023/11/19 11:36:29;;;;;;;1.00;0.80;;;16.20;99.90;;;;;;4941969;29;20466;-73
2023/11/19 11:39:00;;;;;;;1.00;0.90;;;15.80;99.90;;;;;;4953832;28;20490;-72
2023/11/19 11:41:30;;;;;;;1.93;1.20;;;15.50;99.90;;;;;;4941232;28;20492;-72
2023/11/19 11:44:00;;;;;;;1.30;0.97;;;15.40;99.90;;;;;;4952782;28;20474;-72
2023/11/19 11:46:57;;;;;;;1.00;0.80;;;15.20;99.90;;;;;;4944735;28;20569;-73
2023/11/19 11:49:32;;;;;;;1.10;0.90;;;15.00;99.90;;;;;;4905232;28;20529;-72
2023/11/19 11:52:04;;;;;;;1.03;0.83;;;14.90;99.90;;;;;;4938555;29;20900;-72
2023/11/19 11:54:32;;;;;;;0.97;0.87;;;14.80;99.90;;;;;;4953197;28;20465;-72
2023/11/19 11:57:10;;;;;;;2.50;0.80;;;14.70;99.90;;;;;;4948142;29;20524;-71
2023/11/19 11:59:50;;;;;;;1.77;0.90;;;14.60;99.90;;;;;;4928612;29;20842;-73
2023/11/19 12:02:23;;;;;;;1.57;0.70;;;14.60;99.90;;;;;;4932160;29;20502;-72
2023/11/19 12:04:53;;;;;;;0.87;0.77;;;14.80;99.90;;;;;;4935902;29;20555;-72
2023/11/19 12:07:25;;;;;;;1.00;0.90;;;15.20;99.90;;;;;;4932185;29;20475;-72
2023/11/19 12:09:55;;;;;;;1.63;0.70;;;15.70;99.90;;;;;;4936469;29;20467;-70
2023/11/19 12:12:28;;;;;;;1.10;0.70;;;16.40;99.90;;;;;;4935809;29;20487;-71
2023/11/19 12:15:09;;;;;;;1.23;0.90;;;16.70;99.90;;;;;;4936140;29;20534;-70
2023/11/19 12:17:49;;;;;;;0.90;0.70;;;16.40;99.90;;;;;;4929951;29;20473;-71
2023/11/19 12:20:16;;;;;;;0.97;0.70;;;16.30;99.90;;;;;;4943415;29;20489;-72
2023/11/19 12:22:44;;;;;;;1.10;0.90;;;16.20;99.90;;;;;;4956262;28;21131;-72
2023/11/19 12:25:14;;;;;;;0.80;0.70;;;15.90;99.90;;;;;;4947139;28;20466;-72
2023/11/19 12:27:41;;;;;;;1.87;1.10;;;15.60;99.90;;;;;;4917730;29;20471;-71
2023/11/19 12:30:09;;;;;;;1.17;0.80;;;15.40;99.90;;;;;;4929407;29;20461;-71
2023/11/19 12:32:40;;;;;;;1.03;0.80;;;15.40;99.90;;;;;;4925536;29;20491;-71
2023/11/19 12:35:12;;;;;;;0.93;0.80;;;15.40;99.90;;;;;;4925283;29;20456;-72
2023/11/19 12:37:43;;;;;;;0.90;0.70;;;15.50;99.90;;;;;;4918065;29;20474;-71
2023/11/19 12:40:18;;;;;;;0.90;0.80;;;15.30;99.90;;;;;;4923533;29;20492;-71
2023/11/19 12:42:46;;;;;;;1.00;0.80;;;15.20;99.90;;;;;;4921962;29;20466;-71
2023/11/19 12:45:13;;;;;;;1.27;1.00;;;15.20;99.90;;;;;;4921781;29;20995;-70
2023/11/19 12:47:41;;;;;;;1.60;0.70;;;15.20;99.90;;;;;;4933377;29;20559;-71
2023/11/19 12:50:11;;;;;;;0.80;0.70;;;15.20;99.90;;;;;;4918673;29;20632;-71
2023/11/19 12:52:38;;;;;;;0.90;0.70;;;15.20;99.90;;;;;;4921014;29;20489;-72
2023/11/19 12:55:07;;;;;;;1.63;0.80;;;15.20;99.90;;;;;;4921403;29;20463;-71
2023/11/19 12:57:38;;;;;;;1.67;1.10;;;15.20;99.90;;;;;;4917786;29;20467;-71
2023/11/19 13:00:10;;;;;;;1.70;1.10;;;15.40;99.90;;;;;;4925465;29;20553;-72
2023/11/19 13:02:47;;;;;;;1.73;1.13;;;15.70;99.90;;;;;;4925336;29;20491;-70
2023/11/19 13:05:31;;;;;;;1.30;0.93;;;15.90;99.90;;;;;;4923097;29;20956;-71
2023/11/19 13:08:05;;;;;;;1.73;1.00;;;15.80;99.90;;;;;;4924451;29;20562;-71
2023/11/19 13:10:33;;;;;;;0.80;0.80;;;15.90;99.90;;;;;;4920271;29;20501;-72
2023/11/19 13:13:08;;;;;;;1.10;0.80;;;16.50;99.90;;;;;;4932610;29;21023;-71
2023/11/19 13:15:35;;;;;;;1.17;0.93;;;16.60;99.90;;;;;;4919471;29;20470;-71
2023/11/19 13:18:03;;;;;;;1.00;0.90;;;16.40;99.90;;;;;;4925006;29;20466;-71
2023/11/19 13:20:32;;;;;;;2.83;1.23;;;16.00;99.90;;;;;;4921576;29;21018;-71
2023/11/19 13:23:00;;;;;;;1.20;0.90;;;15.80;99.90;;;;;;4915996;29;20855;-72
2023/11/19 13:25:27;;;;;;;1.10;0.80;;;15.60;99.90;;;;;;4922493;29;20472;-71
2023/11/19 13:27:54;;;;;;;1.53;1.00;;;15.50;99.90;;;;;;4920160;29;20993;-72
2023/11/19 13:30:22;;;;;;;1.10;0.80;;;15.40;99.90;;;;;;4921340;29;20504;-71
2023/11/19 13:32:49;;;;;;;1.00;0.90;;;15.70;99.90;;;;;;4919787;29;20534;-71
2023/11/19 13:35:16;;;;;;;1.00;0.67;;;15.70;99.90;;;;;;4919970;29;20472;-71
2023/11/19 13:37:46;;;;;;;1.30;1.00;;;15.60;99.90;;;;;;4933336;28;20552;-71
2023/11/19 13:40:15;;;;;;;2.10;0.93;;;15.60;99.90;;;;;;4921136;29;20546;-71
2023/11/19 13:42:42;;;;;;;0.90;0.70;;;15.50;99.90;;;;;;4920247;28;20476;-71
2023/11/19 13:45:11;;;;;;;1.30;0.90;;;15.30;99.90;;;;;;4917778;29;20473;-71
2023/11/19 13:47:40;;;;;;;1.27;1.00;;;15.00;99.90;;;;;;4917913;29;20471;-71
2023/11/19 13:50:09;;;;;;;0.80;0.70;;;14.80;99.90;;;;;;4917971;29;20571;-70
2023/11/19 13:52:36;;;;;;;1.50;1.00;;;14.70;99.90;;;;;;4917180;29;21035;-71
2023/11/19 13:55:06;;;;;;;1.40;1.17;;;14.50;99.90;;;;;;4917833;29;20509;-72
2023/11/19 13:57:34;;;;;;;2.20;0.97;;;14.30;99.90;;;;;;4919311;29;20468;-71
2023/11/19 14:00:01;;;;;;;1.10;0.70;;;14.30;99.90;;;;;;4918194;29;20944;-71
2023/11/19 14:02:27;;;;;;;1.83;0.90;;;14.20;99.90;;;;;;4918912;29;20481;-71
2023/11/19 14:04:54;;;;;;;1.73;0.90;;;14.20;99.90;;;;;;4917867;29;20457;-71
2023/11/19 14:07:21;;;;;;;0.80;0.70;;;14.20;99.90;;;;;;4919505;29;20890;-71
2023/11/19 14:09:48;;;;;;;1.00;0.90;;;14.10;99.90;;;;;;4918323;29;20585;-72
2023/11/19 14:12:17;;;;;;;1.83;1.10;;;14.10;99.90;;;;;;4918901;29;20870;-72
2023/11/19 14:14:44;;;;;;;0.97;0.73;;;14.00;99.90;;;;;;4917174;29;20470;-71
2023/11/19 14:17:11;;;;;;;2.00;0.90;;;14.00;99.90;;;;;;4918483;29;20466;-71
2023/11/19 14:19:39;;;;;;;2.80;0.90;;;14.00;99.90;;;;;;4919018;29;20517;-71
2023/11/19 14:22:06;;;;;;;1.00;0.90;;;14.00;99.90;;;;;;4917294;29;20603;-70
2023/11/19 14:24:34;;;;;;;1.07;0.80;;;14.00;99.90;;;;;;4918794;29;20473;-70
2023/11/19 14:27:01;;;;;;;1.30;1.00;;;14.00;99.90;;;;;;4915906;29;20540;-70
2023/11/19 14:29:30;;;;;;;1.00;0.90;;;14.10;99.90;;;;;;4917620;29;20597;-70
2023/11/19 14:31:58;;;;;;;0.93;0.83;;;14.20;99.90;;;;;;4917087;29;20498;-70
2023/11/19 14:34:26;;;;;;;1.00;0.70;;;14.20;99.90;;;;;;4918407;29;20461;-70
2023/11/19 14:36:53;;;;;;;2.90;0.90;;;14.10;99.90;;;;;;4916433;29;20470;-70
2023/11/19 14:39:20;;;;;;;0.80;0.77;;;14.10;99.90;;;;;;4918387;29;20515;-70
2023/11/19 14:41:47;;;;;;;2.63;1.13;;;14.10;99.90;;;;;;4918648;29;20498;-70
2023/11/19 14:44:13;;;;;;;1.47;0.87;;;14.10;99.90;;;;;;4918862;29;21047;-70
2023/11/19 14:46:41;;;;;;;1.30;0.90;;;14.00;99.90;;;;;;4919254;29;20473;-70
2023/11/19 14:49:08;;;;;;;1.10;0.80;;;13.90;99.90;;;;;;4918966;29;20471;-70
2023/11/19 14:51:36;;;;;;;1.40;1.00;;;13.70;99.90;;;;;;4918022;29;20492;-70
2023/11/19 14:54:03;;;;;;;0.80;0.70;;;13.70;99.90;;;;;;4924484;29;20523;-70
2023/11/19 14:56:30;;;;;;;1.83;0.90;;;13.50;99.90;;;;;;4926462;29;20957;-70
2023/11/19 14:58:57;;;;;;;1.30;0.80;;;13.50;99.90;;;;;;4923001;29;20473;-71
2023/11/19 15:01:25;;;;;;;2.90;0.97;;;13.40;99.90;;;;;;4924888;29;20486;-70
2023/11/19 15:03:53;;;;;;;1.00;0.80;;;13.40;99.90;;;;;;4920801;29;20556;-70
2023/11/19 15:06:25;;;;;;;1.10;0.93;;;13.30;99.90;;;;;;4927242;29;20457;-70
2023/11/19 15:08:51;;;;;;;1.90;1.00;;;13.20;99.90;;;;;;4921387;28;20458;-70
2023/11/19 15:11:18;;;;;;;1.17;0.95;;;13.20;99.90;;;;;;4920179;29;20872;-70
2023/11/19 15:13:45;;;;;;;1.20;0.90;;;13.10;99.90;;;;;;4918818;29;20216;-70
2023/11/19 15:16:13;;;;;;;1.10;0.80;;;13.00;99.90;;;;;;4918426;29;20474;-70
2023/11/19 15:18:40;;;;;;;1.20;0.87;;;13.00;99.90;;;;;;4933394;28;20216;-69
2023/11/19 15:21:09;;;;;;;1.20;0.90;;;13.00;99.90;;;;;;4926649;29;20540;-70
2023/11/19 15:23:37;;;;;;;2.28;1.17;;;12.90;99.90;;;;;;4934019;29;20468;-69
2023/11/19 15:26:04;;;;;;;1.43;1.07;;;12.80;99.90;;;;;;4922212;29;20248;-69
2023/11/19 15:28:33;;;;;;;1.20;0.90;;;12.80;99.90;;;;;;4926438;29;21095;-68
2023/11/19 15:31:00;;;;;;;3.03;0.95;;;12.70;99.90;;;;;;4923050;29;20230;-68
2023/11/19 15:33:27;;;;;;;1.13;0.90;;;12.70;99.90;;;;;;4928634;29;20245;-68
2023/11/19 15:35:55;;;;;;;0.90;0.80;;;12.60;99.90;;;;;;4924950;29;20210;-68
2023/11/19 15:38:23;;;;;;;1.42;0.98;;;12.60;99.90;;;;;;4927469;29;20481;-69
2023/11/19 15:40:51;;;;;;;1.35;0.95;;;12.50;99.90;;;;;;4927931;28;20229;-71
2023/11/19 15:43:19;;;;;;;1.87;1.10;;;12.40;99.90;;;;;;4928766;29;20216;-69
2023/11/19 15:45:45;;;;;;;3.27;1.20;;;12.40;99.90;;;;;;4926171;28;20496;-71
2023/11/19 15:48:13;;;;;;;1.10;0.90;;;12.30;99.90;;;;;;4925157;29;20477;-70
2023/11/19 15:50:40;;;;;;;1.10;0.90;;;12.30;99.90;;;;;;4928627;28;20495;-70
2023/11/19 15:53:07;;;;;;;1.27;0.90;;;12.20;99.90;;;;;;4924707;29;20592;-70
2023/11/19 15:55:35;;;;;;;1.70;1.23;;;12.10;99.90;;;;;;4929925;29;20482;-70
2023/11/19 15:58:01;;;;;;;1.00;0.70;;;12.10;99.90;;;;;;4925244;29;20225;-69
2023/11/19 16:00:28;;;;;;;1.58;0.82;;;12.00;99.90;;;;;;4929946;29;20218;-70
2023/11/19 16:02:56;;;;;;;0.80;0.77;;;12.00;99.90;;;;;;4925670;28;20865;-70
2023/11/19 16:05:23;;;;;;;1.73;1.00;;;11.90;99.90;;;;;;4927834;29;20301;-70
2023/11/19 16:07:50;;;;;;;1.00;0.90;;;11.90;99.90;;;;;;4926914;28;20288;-70
2023/11/19 16:10:19;;;;;;;1.42;0.90;;;11.90;99.90;;;;;;4927154;29;20226;-70
2023/11/19 16:12:48;;;;;;;1.13;1.02;;;11.80;99.90;;;;;;4928233;28;20283;-70
2023/11/19 16:15:15;;;;;;;1.50;1.00;;;11.70;99.90;;;;;;4926836;29;20261;-70
2023/11/19 16:17:42;;;;;;;1.38;0.75;;;11.60;99.90;;;;;;4932995;28;20876;-70
2023/11/19 16:20:10;;;;;;;1.55;0.90;;;11.60;99.90;;;;;;4930010;29;20619;-70
2023/11/19 16:22:39;;;;;;;1.27;0.90;;;11.50;99.90;;;;;;4924259;29;20677;-71
2023/11/19 16:25:07;;;;;;;1.85;0.80;;;11.50;99.90;;;;;;4931943;29;20585;-71
2023/11/19 16:27:34;;;;;;;2.10;1.10;;;11.40;99.90;;;;;;4935493;29;20261;-70
2023/11/19 16:30:03;;;;;;;0.95;0.82;;;11.40;99.90;;;;;;4928182;29;20221;-71
2023/11/19 16:32:29;;;;;;;5.90;0.98;;;11.30;99.90;;;;;;4926070;29;20243;-71
2023/11/19 16:34:56;;;;;;;1.00;0.75;;;11.30;99.90;;;;;;4926170;29;20212;-71
2023/11/19 16:37:23;;;;;;;0.80;0.70;;;11.20;99.90;;;;;;4926238;29;20225;-71
2023/11/19 16:39:49;;;;;;;1.25;1.00;;;11.10;99.90;;;;;;4924626;29;20224;-70
2023/11/19 16:42:20;;;;;;;1.10;0.90;;;11.00;99.90;;;;;;4924345;29;20232;-71
2023/11/19 16:44:47;;;;;;;0.90;0.80;;;11.00;99.90;;;;;;4926536;29;20235;-68
2023/11/19 16:47:15;;;;;;;1.90;1.25;;;10.90;99.90;;;;;;4924526;29;20304;-71
2023/11/19 16:49:43;;;;;;;1.02;0.80;;;10.90;99.90;;;;;;4926125;29;20219;-71
2023/11/19 16:52:10;;;;;;;0.90;0.80;;;10.90;99.90;;;;;;4923681;29;20748;-70
2023/11/19 16:54:37;;;;;;;1.17;1.08;;;10.80;99.90;;;;;;4930348;29;20214;-69
2023/11/19 16:57:04;;;;;;;1.95;1.20;;;10.80;99.90;;;;;;4925930;29;20470;-70
2023/11/19 16:59:31;;;;;;;1.95;1.30;;;10.80;99.90;;;;;;4926213;29;20234;-70
2023/11/19 17:01:57;;;;;;;1.98;1.25;;;10.80;99.90;;;;;;4923467;29;20600;-71
2023/11/19 17:04:27;;;;;;;1.17;0.90;;;10.80;99.90;;;;;;4925251;29;20220;-70
2023/11/19 17:06:53;;;;;;;2.65;1.15;;;10.80;99.90;;;;;;4923153;29;20268;-71
2023/11/19 17:09:20;;;;;;;1.85;1.35;;;10.80;99.90;;;;;;4924921;29;20601;-71
2023/11/19 17:11:47;;;;;;;1.52;0.80;;;10.70;99.90;;;;;;4925080;29;20235;-70
2023/11/19 17:14:14;;;;;;;1.15;0.80;;;10.70;99.90;;;;;;4924067;29;20217;-70
2023/11/19 17:16:40;;;;;;;2.20;1.20;;;10.70;99.90;;;;;;4926034;29;20219;-70
2023/11/19 17:19:07;;;;;;;3.50;1.58;;;10.70;99.90;;;;;;4930194;29;20213;-70
2023/11/19 17:21:35;;;;;;;1.90;0.98;;;10.70;99.90;;;;;;4934652;29;20223;-70
2023/11/19 17:24:02;;;;;;;1.02;0.93;;;10.70;99.90;;;;;;4934352;28;20244;-70
2023/11/19 17:26:29;;;;;;;1.42;1.13;;;10.70;99.90;;;;;;4936336;28;20213;-70